sensor_id;sensor_type;location;lat;lon;timestamp;pressure;altitude;pressure_sealevel;temperature;humidity
62436;BME280;48480;50.252;18.848;2022-11-23T00:00:55;97567.02;;;2.86;74.02
62436;BME280;48480;50.252;18.848;2022-11-23T00:03:21;97571.20;;;2.89;73.88
62436;BME280;48480;50.252;18.848;2022-11-23T00:05:46;97565.62;;;2.90;73.85
62436;BME280;48480;50.252;18.848;2022-11-23T00:08:12;97564.02;;;2.91;73.69
62436;BME280;48480;50.252;18.848;2022-11-23T00:10:37;97566.52;;;2.94;73.71
62436;BME280;48480;50.252;18.848;2022-11-23T00:13:02;97566.72;;;2.95;73.72
62436;BME280;48480;50.252;18.848;2022-11-23T00:15:30;97566.75;;;2.97;73.59
62436;BME280;48480;50.252;18.848;2022-11-23T00:17:57;97560.86;;;2.91;73.42
62436;BME280;48480;50.252;18.848;2022-11-23T00:20:26;97571.39;;;2.96;73.46
62436;BME280;48480;50.252;18.848;2022-11-23T00:22:53;97572.48;;;2.96;73.19
62436;BME280;48480;50.252;18.848;2022-11-23T00:25:18;97571.80;;;2.95;73.16
62436;BME280;48480;50.252;18.848;2022-11-23T00:27:43;97566.91;;;2.93;73.12
62436;BME280;48480;50.252;18.848;2022-11-23T00:30:09;97571.73;;;2.94;73.00
62436;BME280;48480;50.252;18.848;2022-11-23T00:32:35;97567.46;;;2.92;72.97
62436;BME280;48480;50.252;18.848;2022-11-23T00:35:00;97567.18;;;2.89;72.80
62436;BME280;48480;50.252;18.848;2022-11-23T00:37:25;97571.94;;;2.86;72.79
62436;BME280;48480;50.252;18.848;2022-11-23T00:39:51;97572.45;;;2.83;72.81
62436;BME280;48480;50.252;18.848;2022-11-23T00:42:16;97572.59;;;2.81;72.90
62436;BME280;48480;50.252;18.848;2022-11-23T00:44:42;97569.98;;;2.78;72.97
62436;BME280;48480;50.252;18.848;2022-11-23T00:47:07;97573.83;;;2.76;72.94
62436;BME280;48480;50.252;18.848;2022-11-23T00:49:33;97530.10;;;2.47;72.86
62436;BME280;48480;50.252;18.848;2022-11-23T00:51:58;97572.02;;;2.72;72.95
62436;BME280;48480;50.252;18.848;2022-11-23T00:54:24;97568.60;;;2.70;73.03
62436;BME280;48480;50.252;18.848;2022-11-23T00:56:49;97568.30;;;2.68;73.14
62436;BME280;48480;50.252;18.848;2022-11-23T00:59:15;97563.88;;;2.67;73.10
62436;BME280;48480;50.252;18.848;2022-11-23T01:01:40;97568.17;;;2.65;73.25
62436;BME280;48480;50.252;18.848;2022-11-23T01:04:07;97565.66;;;2.65;73.31
62436;BME280;48480;50.252;18.848;2022-11-23T01:06:34;97559.77;;;2.64;73.52
62436;BME280;48480;50.252;18.848;2022-11-23T01:09:10;97557.17;;;2.61;73.23
62436;BME280;48480;50.252;18.848;2022-11-23T01:11:36;97553.65;;;2.55;73.41
62436;BME280;48480;50.252;18.848;2022-11-23T01:14:02;97552.58;;;2.49;73.61
62436;BME280;48480;50.252;18.848;2022-11-23T01:16:30;97551.79;;;2.43;73.69
62436;BME280;48480;50.252;18.848;2022-11-23T01:18:58;97556.47;;;2.36;73.80
62436;BME280;48480;50.252;18.848;2022-11-23T01:21:26;97556.43;;;2.27;74.04
62436;BME280;48480;50.252;18.848;2022-11-23T01:23:52;97553.91;;;2.25;74.25
62436;BME280;48480;50.252;18.848;2022-11-23T01:26:18;97556.58;;;2.28;74.47
62436;BME280;48480;50.252;18.848;2022-11-23T01:28:43;97557.49;;;2.30;74.57
62436;BME280;48480;50.252;18.848;2022-11-23T01:31:15;97557.36;;;2.33;74.58
62436;BME280;48480;50.252;18.848;2022-11-23T01:33:41;97555.48;;;2.34;74.70
62436;BME280;48480;50.252;18.848;2022-11-23T01:36:15;97558.50;;;2.38;74.51
62436;BME280;48480;50.252;18.848;2022-11-23T01:38:42;97557.83;;;2.42;74.46
62436;BME280;48480;50.252;18.848;2022-11-23T01:41:12;97554.73;;;2.45;74.27
62436;BME280;48480;50.252;18.848;2022-11-23T01:43:38;97556.88;;;2.46;74.35
62436;BME280;48480;50.252;18.848;2022-11-23T01:46:05;97553.56;;;2.45;74.34
62436;BME280;48480;50.252;18.848;2022-11-23T01:48:55;97554.30;;;2.45;74.52
62436;BME280;48480;50.252;18.848;2022-11-23T01:51:30;97547.42;;;2.41;74.23
62436;BME280;48480;50.252;18.848;2022-11-23T01:54:01;97556.38;;;2.41;74.26
62436;BME280;48480;50.252;18.848;2022-11-23T01:56:38;97558.35;;;2.39;74.51
62436;BME280;48480;50.252;18.848;2022-11-23T01:59:10;97555.09;;;2.37;74.37
62436;BME280;48480;50.252;18.848;2022-11-23T02:01:36;97554.98;;;2.29;74.49
62436;BME280;48480;50.252;18.848;2022-11-23T02:04:03;97555.05;;;2.23;74.59
62436;BME280;48480;50.252;18.848;2022-11-23T02:06:31;97560.86;;;2.13;74.68
62436;BME280;48480;50.252;18.848;2022-11-23T02:08:58;97565.60;;;2.05;75.13
62436;BME280;48480;50.252;18.848;2022-11-23T02:11:24;97563.80;;;2.06;75.42
62436;BME280;48480;50.252;18.848;2022-11-23T02:13:50;97565.44;;;2.11;75.45
62436;BME280;48480;50.252;18.848;2022-11-23T02:16:17;97560.78;;;2.11;75.44
62436;BME280;48480;50.252;18.848;2022-11-23T02:18:45;97562.08;;;2.14;75.34
62436;BME280;48480;50.252;18.848;2022-11-23T02:21:11;97566.70;;;2.17;75.47
62436;BME280;48480;50.252;18.848;2022-11-23T02:24:00;97562.91;;;2.20;75.44
62436;BME280;48480;50.252;18.848;2022-11-23T02:26:30;97562.08;;;2.24;75.44
62436;BME280;48480;50.252;18.848;2022-11-23T02:29:02;97562.92;;;2.24;75.45
62436;BME280;48480;50.252;18.848;2022-11-23T02:31:30;97564.11;;;2.26;75.43
62436;BME280;48480;50.252;18.848;2022-11-23T02:33:57;97567.63;;;2.28;75.21
62436;BME280;48480;50.252;18.848;2022-11-23T02:36:38;97571.94;;;2.26;75.24
62436;BME280;48480;50.252;18.848;2022-11-23T02:39:31;97582.23;;;2.29;75.44
62436;BME280;48480;50.252;18.848;2022-11-23T02:41:59;97582.56;;;2.32;75.25
62436;BME280;48480;50.252;18.848;2022-11-23T02:47:09;97575.14;;;2.28;75.02
62436;BME280;48480;50.252;18.848;2022-11-23T02:49:36;97574.92;;;2.24;75.13
62436;BME280;48480;50.252;18.848;2022-11-23T02:52:02;97574.79;;;2.23;75.23
62436;BME280;48480;50.252;18.848;2022-11-23T02:54:28;97572.10;;;2.21;75.14
62436;BME280;48480;50.252;18.848;2022-11-23T02:56:53;97572.70;;;2.20;75.37
62436;BME280;48480;50.252;18.848;2022-11-23T02:59:19;97568.11;;;2.15;75.25
62436;BME280;48480;50.252;18.848;2022-11-23T03:01:47;97570.73;;;2.11;75.48
62436;BME280;48480;50.252;18.848;2022-11-23T03:04:13;97572.91;;;2.06;75.43
62436;BME280;48480;50.252;18.848;2022-11-23T03:06:38;97571.94;;;2.02;75.49
62436;BME280;48480;50.252;18.848;2022-11-23T03:09:04;97570.84;;;1.97;75.60
62436;BME280;48480;50.252;18.848;2022-11-23T03:11:30;97573.21;;;1.97;75.88
62436;BME280;48480;50.252;18.848;2022-11-23T03:13:57;97567.67;;;1.96;75.82
62436;BME280;48480;50.252;18.848;2022-11-23T03:16:22;97570.53;;;1.96;75.66
62436;BME280;48480;50.252;18.848;2022-11-23T03:18:48;97564.98;;;1.89;75.70
62436;BME280;48480;50.252;18.848;2022-11-23T03:21:15;97564.09;;;1.84;75.82
62436;BME280;48480;50.252;18.848;2022-11-23T03:23:40;97566.21;;;1.78;76.01
62436;BME280;48480;50.252;18.848;2022-11-23T03:26:06;97561.86;;;1.69;76.20
62436;BME280;48480;50.252;18.848;2022-11-23T03:28:31;97557.92;;;1.65;76.36
62436;BME280;48480;50.252;18.848;2022-11-23T03:30:57;97555.74;;;1.60;76.57
62436;BME280;48480;50.252;18.848;2022-11-23T03:33:22;97556.73;;;1.50;76.69
62436;BME280;48480;50.252;18.848;2022-11-23T03:35:48;97558.67;;;1.41;76.92
62436;BME280;48480;50.252;18.848;2022-11-23T03:38:13;97560.09;;;1.34;77.24
62436;BME280;48480;50.252;18.848;2022-11-23T03:40:39;97564.26;;;1.35;77.49
62436;BME280;48480;50.252;18.848;2022-11-23T03:43:05;97568.55;;;1.41;77.61
62436;BME280;48480;50.252;18.848;2022-11-23T03:45:31;97564.20;;;1.48;77.75
62436;BME280;48480;50.252;18.848;2022-11-23T03:47:56;97562.59;;;1.51;77.36
62436;BME280;48480;50.252;18.848;2022-11-23T03:50:22;97520.92;;;1.24;77.47
62436;BME280;48480;50.252;18.848;2022-11-23T03:52:48;97556.98;;;1.52;77.44
62436;BME280;48480;50.252;18.848;2022-11-23T03:55:14;97554.98;;;1.57;77.47
62436;BME280;48480;50.252;18.848;2022-11-23T03:57:40;97557.63;;;1.62;77.39
62436;BME280;48480;50.252;18.848;2022-11-23T04:00:06;97561.14;;;1.60;76.97
62436;BME280;48480;50.252;18.848;2022-11-23T04:02:32;97564.53;;;1.53;77.11
62436;BME280;48480;50.252;18.848;2022-11-23T04:04:58;97563.23;;;1.51;77.30
62436;BME280;48480;50.252;18.848;2022-11-23T04:07:23;97563.42;;;1.53;77.36
62436;BME280;48480;50.252;18.848;2022-11-23T04:09:49;97561.95;;;1.58;77.34
62436;BME280;48480;50.252;18.848;2022-11-23T04:12:18;97558.14;;;1.57;77.23
62436;BME280;48480;50.252;18.848;2022-11-23T04:14:58;97552.22;;;1.58;77.43
62436;BME280;48480;50.252;18.848;2022-11-23T04:17:24;97551.23;;;1.63;77.56
62436;BME280;48480;50.252;18.848;2022-11-23T04:19:49;97554.60;;;1.69;77.41
62436;BME280;48480;50.252;18.848;2022-11-23T04:22:15;97511.73;;;1.47;77.38
62436;BME280;48480;50.252;18.848;2022-11-23T04:24:40;97553.14;;;1.79;77.20
62436;BME280;48480;50.252;18.848;2022-11-23T04:27:06;97557.36;;;1.84;77.07
62436;BME280;48480;50.252;18.848;2022-11-23T04:29:31;97555.11;;;1.87;76.87
62436;BME280;48480;50.252;18.848;2022-11-23T04:31:57;97562.94;;;1.87;76.61
62436;BME280;48480;50.252;18.848;2022-11-23T04:34:22;97564.67;;;1.88;76.63
62436;BME280;48480;50.252;18.848;2022-11-23T04:36:48;97558.95;;;1.89;76.68
62436;BME280;48480;50.252;18.848;2022-11-23T04:39:13;97560.73;;;1.91;76.63
62436;BME280;48480;50.252;18.848;2022-11-23T04:41:39;97565.20;;;1.94;76.62
62436;BME280;48480;50.252;18.848;2022-11-23T04:44:05;97560.04;;;1.97;76.43
62436;BME280;48480;50.252;18.848;2022-11-23T04:46:31;97566.23;;;2.01;76.26
62436;BME280;48480;50.252;18.848;2022-11-23T04:48:59;97571.46;;;2.02;76.28
62436;BME280;48480;50.252;18.848;2022-11-23T04:51:26;97567.81;;;2.06;76.08
62436;BME280;48480;50.252;18.848;2022-11-23T04:53:51;97559.27;;;2.06;76.21
62436;BME280;48480;50.252;18.848;2022-11-23T04:56:17;97556.87;;;2.02;76.02
62436;BME280;48480;50.252;18.848;2022-11-23T04:58:42;97547.80;;;1.99;76.04
62436;BME280;48480;50.252;18.848;2022-11-23T05:01:08;97546.88;;;1.96;76.16
62436;BME280;48480;50.252;18.848;2022-11-23T05:03:33;97549.12;;;1.93;76.12
62436;BME280;48480;50.252;18.848;2022-11-23T05:06:00;97551.77;;;1.92;76.40
62436;BME280;48480;50.252;18.848;2022-11-23T05:08:27;97554.95;;;1.93;76.44
62436;BME280;48480;50.252;18.848;2022-11-23T05:10:53;97551.42;;;1.96;76.34
62436;BME280;48480;50.252;18.848;2022-11-23T05:13:18;97559.34;;;1.98;76.23
62436;BME280;48480;50.252;18.848;2022-11-23T05:15:44;97565.52;;;1.93;76.08
62436;BME280;48480;50.252;18.848;2022-11-23T05:18:10;97563.95;;;1.92;76.44
62436;BME280;48480;50.252;18.848;2022-11-23T05:20:36;97564.56;;;1.93;76.42
62436;BME280;48480;50.252;18.848;2022-11-23T05:23:02;97563.91;;;1.95;76.32
62436;BME280;48480;50.252;18.848;2022-11-23T05:25:28;97561.87;;;1.94;76.36
62436;BME280;48480;50.252;18.848;2022-11-23T05:27:54;97560.94;;;1.91;76.47
62436;BME280;48480;50.252;18.848;2022-11-23T05:30:19;97561.02;;;1.94;76.61
62436;BME280;48480;50.252;18.848;2022-11-23T05:32:45;97560.86;;;1.99;76.56
62436;BME280;48480;50.252;18.848;2022-11-23T05:35:10;97548.77;;;1.96;76.42
62436;BME280;48480;50.252;18.848;2022-11-23T05:37:36;97555.98;;;2.00;76.51
62436;BME280;48480;50.252;18.848;2022-11-23T05:40:03;97555.98;;;2.00;76.50
62436;BME280;48480;50.252;18.848;2022-11-23T05:42:28;97557.80;;;1.99;76.30
62436;BME280;48480;50.252;18.848;2022-11-23T05:44:54;97560.15;;;1.98;76.68
62436;BME280;48480;50.252;18.848;2022-11-23T05:47:20;97561.90;;;2.01;76.67
62436;BME280;48480;50.252;18.848;2022-11-23T05:49:45;97559.98;;;2.04;76.41
62436;BME280;48480;50.252;18.848;2022-11-23T05:52:11;97560.96;;;2.05;76.25
62436;BME280;48480;50.252;18.848;2022-11-23T05:54:36;97557.46;;;2.01;76.29
62436;BME280;48480;50.252;18.848;2022-11-23T05:57:02;97555.50;;;2.01;76.45
62436;BME280;48480;50.252;18.848;2022-11-23T05:59:27;97555.64;;;2.02;76.40
62436;BME280;48480;50.252;18.848;2022-11-23T06:01:52;97562.95;;;2.02;76.43
62436;BME280;48480;50.252;18.848;2022-11-23T06:04:18;97566.45;;;2.02;76.42
62436;BME280;48480;50.252;18.848;2022-11-23T06:06:43;97561.55;;;1.99;76.66
62436;BME280;48480;50.252;18.848;2022-11-23T06:09:09;97573.11;;;2.07;76.53
62436;BME280;48480;50.252;18.848;2022-11-23T06:11:35;97570.80;;;2.10;76.50
62436;BME280;48480;50.252;18.848;2022-11-23T06:14:01;97571.98;;;2.13;76.50
62436;BME280;48480;50.252;18.848;2022-11-23T06:16:27;97573.80;;;2.16;76.67
62436;BME280;48480;50.252;18.848;2022-11-23T06:18:52;97579.36;;;2.20;76.47
62436;BME280;48480;50.252;18.848;2022-11-23T06:21:18;97584.89;;;2.23;76.39
62436;BME280;48480;50.252;18.848;2022-11-23T06:23:46;97593.13;;;2.25;76.32
62436;BME280;48480;50.252;18.848;2022-11-23T06:26:12;97598.20;;;2.25;75.99
62436;BME280;48480;50.252;18.848;2022-11-23T06:28:38;97593.46;;;2.18;76.23
62436;BME280;48480;50.252;18.848;2022-11-23T06:31:05;97603.15;;;2.23;75.84
62436;BME280;48480;50.252;18.848;2022-11-23T06:33:32;97599.36;;;2.21;76.07
62436;BME280;48480;50.252;18.848;2022-11-23T06:35:59;97601.30;;;2.18;76.01
62436;BME280;48480;50.252;18.848;2022-11-23T06:38:25;97601.31;;;2.11;76.00
62436;BME280;48480;50.252;18.848;2022-11-23T06:40:50;97604.27;;;2.03;76.12
62436;BME280;48480;50.252;18.848;2022-11-23T06:43:16;97600.91;;;1.94;76.46
62436;BME280;48480;50.252;18.848;2022-11-23T06:45:42;97601.02;;;1.87;76.67
62436;BME280;48480;50.252;18.848;2022-11-23T06:48:07;97599.61;;;1.80;76.81
62436;BME280;48480;50.252;18.848;2022-11-23T06:50:33;97599.02;;;1.75;77.22
62436;BME280;48480;50.252;18.848;2022-11-23T06:52:58;97588.34;;;1.71;77.46
62436;BME280;48480;50.252;18.848;2022-11-23T06:55:24;97600.10;;;1.84;77.35
62436;BME280;48480;50.252;18.848;2022-11-23T06:57:50;97598.44;;;1.87;77.26
62436;BME280;48480;50.252;18.848;2022-11-23T07:00:16;97596.96;;;1.85;77.25
62436;BME280;48480;50.252;18.848;2022-11-23T07:02:42;97598.28;;;1.85;77.40
62436;BME280;48480;50.252;18.848;2022-11-23T07:05:08;97595.67;;;1.84;77.38
62436;BME280;48480;50.252;18.848;2022-11-23T07:07:34;97592.27;;;1.78;77.57
62436;BME280;48480;50.252;18.848;2022-11-23T07:10:00;97590.73;;;1.73;77.59
62436;BME280;48480;50.252;18.848;2022-11-23T07:12:26;97593.05;;;1.69;77.92
62436;BME280;48480;50.252;18.848;2022-11-23T07:14:51;97589.74;;;1.66;78.01
62436;BME280;48480;50.252;18.848;2022-11-23T07:17:17;97592.46;;;1.63;78.19
62436;BME280;48480;50.252;18.848;2022-11-23T07:19:42;97598.44;;;1.64;78.06
62436;BME280;48480;50.252;18.848;2022-11-23T07:22:08;97603.52;;;1.64;78.35
62436;BME280;48480;50.252;18.848;2022-11-23T07:24:33;97600.48;;;1.64;78.47
62436;BME280;48480;50.252;18.848;2022-11-23T07:26:59;97603.02;;;1.65;78.47
62436;BME280;48480;50.252;18.848;2022-11-23T07:29:25;97609.38;;;1.70;78.47
62436;BME280;48480;50.252;18.848;2022-11-23T07:31:51;97609.31;;;1.76;78.41
62436;BME280;48480;50.252;18.848;2022-11-23T07:34:17;97610.31;;;1.79;78.27
62436;BME280;48480;50.252;18.848;2022-11-23T07:36:42;97613.88;;;1.82;78.45
62436;BME280;48480;50.252;18.848;2022-11-23T07:39:08;97616.18;;;1.84;78.18
62436;BME280;48480;50.252;18.848;2022-11-23T07:41:33;97619.79;;;1.84;78.21
62436;BME280;48480;50.252;18.848;2022-11-23T07:43:59;97620.23;;;1.86;78.24
62436;BME280;48480;50.252;18.848;2022-11-23T07:46:24;97623.79;;;1.91;78.27
62436;BME280;48480;50.252;18.848;2022-11-23T07:48:49;97625.35;;;1.94;78.16
62436;BME280;48480;50.252;18.848;2022-11-23T07:51:15;97630.48;;;2.00;78.23
62436;BME280;48480;50.252;18.848;2022-11-23T07:53:43;97624.13;;;2.05;78.19
62436;BME280;48480;50.252;18.848;2022-11-23T07:56:09;97629.04;;;2.16;77.87
62436;BME280;48480;50.252;18.848;2022-11-23T07:58:34;97634.49;;;2.21;77.65
62436;BME280;48480;50.252;18.848;2022-11-23T08:01:00;97632.76;;;2.25;77.71
62436;BME280;48480;50.252;18.848;2022-11-23T08:03:25;97638.61;;;2.29;77.54
62436;BME280;48480;50.252;18.848;2022-11-23T08:05:51;97645.33;;;2.33;77.64
62436;BME280;48480;50.252;18.848;2022-11-23T08:08:17;97641.05;;;2.39;77.34
62436;BME280;48480;50.252;18.848;2022-11-23T08:10:43;97637.83;;;2.42;77.25
62436;BME280;48480;50.252;18.848;2022-11-23T08:13:08;97635.20;;;2.44;77.31
62436;BME280;48480;50.252;18.848;2022-11-23T08:15:35;97629.54;;;2.46;77.28
62436;BME280;48480;50.252;18.848;2022-11-23T08:18:02;97621.64;;;2.45;77.09
62436;BME280;48480;50.252;18.848;2022-11-23T08:20:28;97623.66;;;2.49;77.12
62436;BME280;48480;50.252;18.848;2022-11-23T08:22:54;97620.66;;;2.49;77.14
62436;BME280;48480;50.252;18.848;2022-11-23T08:25:24;97614.97;;;2.55;77.23
62436;BME280;48480;50.252;18.848;2022-11-23T08:27:55;97613.00;;;2.60;77.07
62436;BME280;48480;50.252;18.848;2022-11-23T08:30:21;97620.66;;;2.66;77.01
62436;BME280;48480;50.252;18.848;2022-11-23T08:32:47;97627.05;;;2.68;76.75
62436;BME280;48480;50.252;18.848;2022-11-23T08:35:13;97621.92;;;2.67;76.71
62436;BME280;48480;50.252;18.848;2022-11-23T08:37:38;97619.76;;;2.67;76.64
62436;BME280;48480;50.252;18.848;2022-11-23T08:40:04;97609.76;;;2.57;76.39
62436;BME280;48480;50.252;18.848;2022-11-23T08:42:29;97616.90;;;2.57;76.62
62436;BME280;48480;50.252;18.848;2022-11-23T08:44:55;97613.77;;;2.55;76.77
62436;BME280;48480;50.252;18.848;2022-11-23T08:47:20;97610.67;;;2.51;76.73
62436;BME280;48480;50.252;18.848;2022-11-23T08:49:46;97606.27;;;2.52;77.01
62436;BME280;48480;50.252;18.848;2022-11-23T08:52:11;97608.13;;;2.56;76.94
62436;BME280;48480;50.252;18.848;2022-11-23T08:54:37;97611.79;;;2.60;76.83
62436;BME280;48480;50.252;18.848;2022-11-23T08:57:02;97608.94;;;2.59;76.83
62436;BME280;48480;50.252;18.848;2022-11-23T08:59:27;97607.05;;;2.61;76.78
62436;BME280;48480;50.252;18.848;2022-11-23T09:01:53;97604.31;;;2.69;76.81
62436;BME280;48480;50.252;18.848;2022-11-23T09:04:18;97603.30;;;2.77;76.70
62436;BME280;48480;50.252;18.848;2022-11-23T09:06:44;97598.95;;;2.86;76.75
62436;BME280;48480;50.252;18.848;2022-11-23T09:09:09;97594.67;;;2.96;76.42
62436;BME280;48480;50.252;18.848;2022-11-23T09:11:35;97597.10;;;3.02;76.36
62436;BME280;48480;50.252;18.848;2022-11-23T09:14:00;97599.71;;;3.11;76.40
62436;BME280;48480;50.252;18.848;2022-11-23T09:16:26;97598.04;;;3.24;76.16
62436;BME280;48480;50.252;18.848;2022-11-23T09:18:55;97601.48;;;3.32;75.59
62436;BME280;48480;50.252;18.848;2022-11-23T09:21:20;97599.40;;;3.33;75.50
62436;BME280;48480;50.252;18.848;2022-11-23T09:23:45;97596.19;;;3.35;75.24
62436;BME280;48480;50.252;18.848;2022-11-23T09:26:11;97595.92;;;3.38;75.38
62436;BME280;48480;50.252;18.848;2022-11-23T09:28:37;97597.38;;;3.46;75.23
62436;BME280;48480;50.252;18.848;2022-11-23T09:31:03;97596.98;;;3.55;74.96
62436;BME280;48480;50.252;18.848;2022-11-23T09:33:29;97594.74;;;3.62;74.91
62436;BME280;48480;50.252;18.848;2022-11-23T09:35:58;97590.30;;;3.65;74.71
62436;BME280;48480;50.252;18.848;2022-11-23T09:38:24;97592.95;;;3.75;74.43
62436;BME280;48480;50.252;18.848;2022-11-23T09:40:57;97552.01;;;3.56;74.27
62436;BME280;48480;50.252;18.848;2022-11-23T09:43:41;97590.80;;;3.82;73.93
62436;BME280;48480;50.252;18.848;2022-11-23T09:46:40;97589.70;;;3.84;73.73
62436;BME280;48480;50.252;18.848;2022-11-23T09:49:12;97590.13;;;3.78;73.33
62436;BME280;48480;50.252;18.848;2022-11-23T09:51:40;97593.89;;;3.73;73.26
62436;BME280;48480;50.252;18.848;2022-11-23T09:56:52;97587.83;;;3.63;73.07
62436;BME280;48480;50.252;18.848;2022-11-23T09:59:40;97582.83;;;3.62;72.69
62436;BME280;48480;50.252;18.848;2022-11-23T10:02:19;97574.39;;;3.48;72.45
62436;BME280;48480;50.252;18.848;2022-11-23T10:04:45;97574.55;;;3.46;72.52
62436;BME280;48480;50.252;18.848;2022-11-23T10:10:05;97568.86;;;3.44;72.70
62436;BME280;48480;50.252;18.848;2022-11-23T10:19:04;97554.74;;;3.41;72.42
62436;BME280;48480;50.252;18.848;2022-11-23T10:21:45;97552.48;;;3.35;72.08
62436;BME280;48480;50.252;18.848;2022-11-23T10:24:17;97551.27;;;3.28;72.12
62436;BME280;48480;50.252;18.848;2022-11-23T10:26:47;97547.90;;;3.24;72.38
62436;BME280;48480;50.252;18.848;2022-11-23T10:29:24;97544.01;;;3.30;72.47
62436;BME280;48480;50.252;18.848;2022-11-23T10:31:51;97547.80;;;3.34;72.22
62436;BME280;48480;50.252;18.848;2022-11-23T10:34:35;97537.80;;;3.37;71.92
62436;BME280;48480;50.252;18.848;2022-11-23T10:37:02;97534.87;;;3.30;71.52
62436;BME280;48480;50.252;18.848;2022-11-23T10:39:32;97540.19;;;3.25;71.23
62436;BME280;48480;50.252;18.848;2022-11-23T10:42:00;97537.52;;;3.24;71.07
62436;BME280;48480;50.252;18.848;2022-11-23T10:44:37;97524.73;;;3.24;71.07
62436;BME280;48480;50.252;18.848;2022-11-23T10:47:03;97530.83;;;3.38;70.76
62436;BME280;48480;50.252;18.848;2022-11-23T10:49:31;97532.55;;;3.42;70.58
62436;BME280;48480;50.252;18.848;2022-11-23T10:52:00;97529.37;;;3.49;70.06
62436;BME280;48480;50.252;18.848;2022-11-23T10:57:00;97527.20;;;3.54;69.28
62436;BME280;48480;50.252;18.848;2022-11-23T11:02:18;97514.98;;;3.47;69.11
62436;BME280;48480;50.252;18.848;2022-11-23T11:04:45;97522.98;;;3.50;69.16
62436;BME280;48480;50.252;18.848;2022-11-23T11:07:21;97522.10;;;3.56;69.24
62436;BME280;48480;50.252;18.848;2022-11-23T11:09:51;97521.90;;;3.63;69.21
62436;BME280;48480;50.252;18.848;2022-11-23T11:12:17;97521.11;;;3.69;69.11
62436;BME280;48480;50.252;18.848;2022-11-23T11:15:02;97518.80;;;3.80;69.02
62436;BME280;48480;50.252;18.848;2022-11-23T11:17:32;97517.83;;;3.86;68.73
62436;BME280;48480;50.252;18.848;2022-11-23T11:19:59;97517.02;;;3.90;68.42
62436;BME280;48480;50.252;18.848;2022-11-23T11:22:35;97519.13;;;3.88;67.69
62436;BME280;48480;50.252;18.848;2022-11-23T11:25:04;97518.21;;;3.80;67.71
62436;BME280;48480;50.252;18.848;2022-11-23T11:27:31;97515.82;;;3.78;68.16
62436;BME280;48480;50.252;18.848;2022-11-23T11:32:56;97513.64;;;3.89;67.79
62436;BME280;48480;50.252;18.848;2022-11-23T11:35:44;97520.23;;;3.92;67.60
62436;BME280;48480;50.252;18.848;2022-11-23T11:38:19;97498.17;;;3.76;67.75
62436;BME280;48480;50.252;18.848;2022-11-23T11:40:50;97516.13;;;3.96;68.02
62436;BME280;48480;50.252;18.848;2022-11-23T11:45:52;97499.34;;;3.90;68.15
62436;BME280;48480;50.252;18.848;2022-11-23T11:48:26;97513.02;;;4.04;67.72
62436;BME280;48480;50.252;18.848;2022-11-23T11:51:00;97498.81;;;3.92;67.86
62436;BME280;48480;50.252;18.848;2022-11-23T11:53:53;97511.66;;;4.01;67.96
62436;BME280;48480;50.252;18.848;2022-11-23T11:56:30;97513.74;;;4.03;67.95
62436;BME280;48480;50.252;18.848;2022-11-23T11:59:21;97514.56;;;4.07;68.11
62436;BME280;48480;50.252;18.848;2022-11-23T12:04:25;97529.84;;;4.16;67.68
62436;BME280;48480;50.252;18.848;2022-11-23T12:09:29;97529.11;;;4.13;67.41
62436;BME280;48480;50.252;18.848;2022-11-23T12:11:59;97523.36;;;4.03;67.24
62436;BME280;48480;50.252;18.848;2022-11-23T12:14:25;97538.75;;;4.03;67.64
62436;BME280;48480;50.252;18.848;2022-11-23T12:17:15;97542.27;;;4.05;67.43
62436;BME280;48480;50.252;18.848;2022-11-23T12:19:58;97537.04;;;3.98;67.74
62436;BME280;48480;50.252;18.848;2022-11-23T12:25:15;97540.27;;;4.09;67.77
62436;BME280;48480;50.252;18.848;2022-11-23T12:36:55;97548.89;;;3.92;68.06
62436;BME280;48480;50.252;18.848;2022-11-23T12:42:48;97562.32;;;3.82;68.16
62436;BME280;48480;50.252;18.848;2022-11-23T12:45:32;97561.07;;;3.83;68.47
62436;BME280;48480;50.252;18.848;2022-11-23T12:56:53;97562.45;;;3.77;68.31
62436;BME280;48480;50.252;18.848;2022-11-23T12:59:20;97559.90;;;3.75;68.55
62436;BME280;48480;50.252;18.848;2022-11-23T13:01:53;97560.41;;;3.76;68.57
62436;BME280;48480;50.252;18.848;2022-11-23T13:07:31;97567.63;;;3.64;68.66
62436;BME280;48480;50.252;18.848;2022-11-23T13:15:25;97578.55;;;3.60;69.23
62436;BME280;48480;50.252;18.848;2022-11-23T13:23:45;97575.67;;;3.64;68.80
62436;BME280;48480;50.252;18.848;2022-11-23T13:28:40;97571.23;;;3.70;68.88
62436;BME280;48480;50.252;18.848;2022-11-23T13:33:43;97566.33;;;3.65;68.81
62436;BME280;48480;50.252;18.848;2022-11-23T13:38:56;97528.32;;;3.36;69.17
62436;BME280;48480;50.252;18.848;2022-11-23T13:44:28;97572.52;;;3.75;69.22
62436;BME280;48480;50.252;18.848;2022-11-23T13:46:59;97574.22;;;3.78;68.84
62436;BME280;48480;50.252;18.848;2022-11-23T13:55:08;97579.85;;;3.68;69.01
62436;BME280;48480;50.252;18.848;2022-11-23T13:57:45;97576.80;;;3.73;69.13
62436;BME280;48480;50.252;18.848;2022-11-23T14:06:03;97581.44;;;3.78;68.85
62436;BME280;48480;50.252;18.848;2022-11-23T14:08:32;97579.85;;;3.78;69.17
62436;BME280;48480;50.252;18.848;2022-11-23T14:11:00;97578.55;;;3.76;68.96
62436;BME280;48480;50.252;18.848;2022-11-23T14:13:34;97583.65;;;3.72;69.07
62436;BME280;48480;50.252;18.848;2022-11-23T14:16:02;97584.27;;;3.70;69.08
62436;BME280;48480;50.252;18.848;2022-11-23T14:18:48;97590.66;;;3.72;69.15
62436;BME280;48480;50.252;18.848;2022-11-23T14:21:54;97590.10;;;3.74;68.98
62436;BME280;48480;50.252;18.848;2022-11-23T14:27:52;97600.30;;;3.88;68.77
62436;BME280;48480;50.252;18.848;2022-11-23T14:32:54;97600.50;;;3.96;68.64
62436;BME280;48480;50.252;18.848;2022-11-23T14:35:45;97598.17;;;4.01;68.79
62436;BME280;48480;50.252;18.848;2022-11-23T14:41:22;97597.61;;;4.12;68.49
62436;BME280;48480;50.252;18.848;2022-11-23T14:43:49;97591.97;;;4.10;68.50
62436;BME280;48480;50.252;18.848;2022-11-23T14:46:20;97597.86;;;4.09;68.37